sensor_id;sensor_type;location;lat;lon;timestamp;temperature;humidity
25963;DHT22;13760;52.588;13.406;2023-10-13T00:01:20;13.80;99.90
25963;DHT22;13760;52.588;13.406;2023-10-13T00:03:46;13.80;99.90
25963;DHT22;13760;52.588;13.406;2023-10-13T00:06:11;13.80;99.90
25963;DHT22;13760;52.588;13.406;2023-10-13T00:08:36;13.80;99.90
25963;DHT22;13760;52.588;13.406;2023-10-13T00:11:02;13.80;99.90
25963;DHT22;13760;52.588;13.406;2023-10-13T00:13:28;13.80;99.90
25963;DHT22;13760;52.588;13.406;2023-10-13T00:15:57;13.80;99.90
25963;DHT22;13760;52.588;13.406;2023-10-13T00:18:32;13.80;99.90
25963;DHT22;13760;52.588;13.406;2023-10-13T00:21:07;13.80;99.90
25963;DHT22;13760;52.588;13.406;2023-10-13T00:23:43;13.80;99.90
25963;DHT22;13760;52.588;13.406;2023-10-13T00:26:18;13.80;99.90
25963;DHT22;13760;52.588;13.406;2023-10-13T00:28:44;13.80;99.90
25963;DHT22;13760;52.588;13.406;2023-10-13T00:31:12;13.80;99.90
25963;DHT22;13760;52.588;13.406;2023-10-13T00:33:40;13.70;99.90
25963;DHT22;13760;52.588;13.406;2023-10-13T00:36:10;13.70;99.90
25963;DHT22;13760;52.588;13.406;2023-10-13T00:38:42;13.70;99.90
25963;DHT22;13760;52.588;13.406;2023-10-13T00:41:14;13.70;99.90
25963;DHT22;13760;52.588;13.406;2023-10-13T00:43:45;13.70;99.90
25963;DHT22;13760;52.588;13.406;2023-10-13T00:46:29;13.70;99.90
25963;DHT22;13760;52.588;13.406;2023-10-13T00:48:58;13.70;99.90
25963;DHT22;13760;52.588;13.406;2023-10-13T00:51:24;13.70;99.90
25963;DHT22;13760;52.588;13.406;2023-10-13T00:54:07;13.70;99.90
25963;DHT22;13760;52.588;13.406;2023-10-13T00:56:42;13.70;99.90
25963;DHT22;13760;52.588;13.406;2023-10-13T00:59:18;13.70;99.90
25963;DHT22;13760;52.588;13.406;2023-10-13T01:01:48;13.70;99.90
25963;DHT22;13760;52.588;13.406;2023-10-13T01:04:19;13.70;99.90
25963;DHT22;13760;52.588;13.406;2023-10-13T01:06:44;13.70;99.90
25963;DHT22;13760;52.588;13.406;2023-10-13T01:09:11;13.70;99.90
25963;DHT22;13760;52.588;13.406;2023-10-13T01:11:48;13.70;99.90
25963;DHT22;13760;52.588;13.406;2023-10-13T01:14:17;13.70;99.90
25963;DHT22;13760;52.588;13.406;2023-10-13T01:16:48;13.70;99.90
25963;DHT22;13760;52.588;13.406;2023-10-13T01:19:18;13.60;99.90
25963;DHT22;13760;52.588;13.406;2023-10-13T01:21:48;13.60;99.90
25963;DHT22;13760;52.588;13.406;2023-10-13T01:24:13;13.60;99.90
25963;DHT22;13760;52.588;13.406;2023-10-13T01:26:44;13.60;99.90
25963;DHT22;13760;52.588;13.406;2023-10-13T01:29:10;13.60;99.90
25963;DHT22;13760;52.588;13.406;2023-10-13T01:31:41;13.60;99.90
25963;DHT22;13760;52.588;13.406;2023-10-13T01:34:16;13.60;99.90
25963;DHT22;13760;52.588;13.406;2023-10-13T01:36:49;13.60;99.90
25963;DHT22;13760;52.588;13.406;2023-10-13T01:39:17;13.60;99.90
25963;DHT22;13760;52.588;13.406;2023-10-13T01:41:43;13.60;99.90
25963;DHT22;13760;52.588;13.406;2023-10-13T01:44:09;13.60;99.90
25963;DHT22;13760;52.588;13.406;2023-10-13T01:46:37;13.60;99.90
25963;DHT22;13760;52.588;13.406;2023-10-13T01:49:03;13.60;99.90
25963;DHT22;13760;52.588;13.406;2023-10-13T01:51:29;13.60;99.90
25963;DHT22;13760;52.588;13.406;2023-10-13T01:53:54;13.60;99.90
25963;DHT22;13760;52.588;13.406;2023-10-13T01:56:23;13.60;99.90
25963;DHT22;13760;52.588;13.406;2023-10-13T01:58:50;13.60;99.90
25963;DHT22;13760;52.588;13.406;2023-10-13T02:01:15;13.60;99.90
25963;DHT22;13760;52.588;13.406;2023-10-13T02:03:55;13.60;99.90
25963;DHT22;13760;52.588;13.406;2023-10-13T02:06:31;13.60;99.90
25963;DHT22;13760;52.588;13.406;2023-10-13T02:09:03;13.60;99.90
25963;DHT22;13760;52.588;13.406;2023-10-13T02:11:38;13.60;99.90
25963;DHT22;13760;52.588;13.406;2023-10-13T02:14:03;13.60;99.90
25963;DHT22;13760;52.588;13.406;2023-10-13T02:16:29;13.60;99.90
25963;DHT22;13760;52.588;13.406;2023-10-13T02:18:56;13.60;99.90
25963;DHT22;13760;52.588;13.406;2023-10-13T02:21:23;13.60;99.90
25963;DHT22;13760;52.588;13.406;2023-10-13T02:23:56;13.50;99.90
25963;DHT22;13760;52.588;13.406;2023-10-13T02:26:26;13.50;99.90
25963;DHT22;13760;52.588;13.406;2023-10-13T02:29:01;13.50;99.90
25963;DHT22;13760;52.588;13.406;2023-10-13T02:31:44;13.50;99.90
25963;DHT22;13760;52.588;13.406;2023-10-13T02:34:20;13.50;99.90
25963;DHT22;13760;52.588;13.406;2023-10-13T02:36:48;13.50;99.90
25963;DHT22;13760;52.588;13.406;2023-10-13T02:39:19;13.50;99.90
25963;DHT22;13760;52.588;13.406;2023-10-13T02:41:53;13.50;99.90
25963;DHT22;13760;52.588;13.406;2023-10-13T02:44:21;13.50;99.90
25963;DHT22;13760;52.588;13.406;2023-10-13T02:46:53;13.50;99.90
25963;DHT22;13760;52.588;13.406;2023-10-13T02:49:30;13.50;99.90
25963;DHT22;13760;52.588;13.406;2023-10-13T02:52:03;13.60;99.90
25963;DHT22;13760;52.588;13.406;2023-10-13T02:54:33;13.60;99.90
25963;DHT22;13760;52.588;13.406;2023-10-13T02:57:05;13.60;99.90
25963;DHT22;13760;52.588;13.406;2023-10-13T02:59:31;13.60;99.90
25963;DHT22;13760;52.588;13.406;2023-10-13T03:02:04;13.60;99.90
25963;DHT22;13760;52.588;13.406;2023-10-13T03:04:46;13.60;99.90
25963;DHT22;13760;52.588;13.406;2023-10-13T03:07:11;13.60;99.90
25963;DHT22;13760;52.588;13.406;2023-10-13T03:09:41;13.60;99.90
25963;DHT22;13760;52.588;13.406;2023-10-13T03:12:15;13.60;99.90
25963;DHT22;13760;52.588;13.406;2023-10-13T03:14:40;13.60;99.90
25963;DHT22;13760;52.588;13.406;2023-10-13T03:17:07;13.60;99.90
25963;DHT22;13760;52.588;13.406;2023-10-13T03:19:43;13.60;99.90
25963;DHT22;13760;52.588;13.406;2023-10-13T03:22:11;13.60;99.90
25963;DHT22;13760;52.588;13.406;2023-10-13T03:24:38;13.60;99.90
25963;DHT22;13760;52.588;13.406;2023-10-13T03:27:11;13.60;99.90
25963;DHT22;13760;52.588;13.406;2023-10-13T03:29:44;13.60;99.90
25963;DHT22;13760;52.588;13.406;2023-10-13T03:32:15;13.60;99.90
25963;DHT22;13760;52.588;13.406;2023-10-13T03:34:45;13.60;99.90
25963;DHT22;13760;52.588;13.406;2023-10-13T03:37:32;13.60;99.90
25963;DHT22;13760;52.588;13.406;2023-10-13T03:40:04;13.70;99.90
25963;DHT22;13760;52.588;13.406;2023-10-13T03:42:54;13.70;99.90
25963;DHT22;13760;52.588;13.406;2023-10-13T03:45:45;13.70;99.90
25963;DHT22;13760;52.588;13.406;2023-10-13T03:48:17;13.70;99.90
25963;DHT22;13760;52.588;13.406;2023-10-13T03:50:55;13.70;99.90
25963;DHT22;13760;52.588;13.406;2023-10-13T03:53:37;13.70;99.90
25963;DHT22;13760;52.588;13.406;2023-10-13T03:56:18;13.70;99.90
25963;DHT22;13760;52.588;13.406;2023-10-13T03:58:52;13.70;99.90
25963;DHT22;13760;52.588;13.406;2023-10-13T04:01:19;13.70;99.90
25963;DHT22;13760;52.588;13.406;2023-10-13T04:03:50;13.70;99.90
25963;DHT22;13760;52.588;13.406;2023-10-13T04:06:36;13.70;99.90
25963;DHT22;13760;52.588;13.406;2023-10-13T04:14:30;13.70;99.90
25963;DHT22;13760;52.588;13.406;2023-10-13T04:17:14;13.70;99.90
25963;DHT22;13760;52.588;13.406;2023-10-13T04:19:43;13.70;99.90
25963;DHT22;13760;52.588;13.406;2023-10-13T04:22:27;13.80;99.90
25963;DHT22;13760;52.588;13.406;2023-10-13T04:25:24;13.80;99.90
25963;DHT22;13760;52.588;13.406;2023-10-13T04:28:11;13.80;99.90
25963;DHT22;13760;52.588;13.406;2023-10-13T04:31:01;13.80;99.90
25963;DHT22;13760;52.588;13.406;2023-10-13T04:33:52;13.80;99.90
25963;DHT22;13760;52.588;13.406;2023-10-13T04:36:27;13.80;99.90
25963;DHT22;13760;52.588;13.406;2023-10-13T04:38:55;13.80;99.90
25963;DHT22;13760;52.588;13.406;2023-10-13T04:41:21;13.80;99.90
25963;DHT22;13760;52.588;13.406;2023-10-13T04:43:49;13.80;99.90
25963;DHT22;13760;52.588;13.406;2023-10-13T04:46:21;13.90;99.90
25963;DHT22;13760;52.588;13.406;2023-10-13T04:49:01;13.90;99.90
25963;DHT22;13760;52.588;13.406;2023-10-13T04:51:36;13.90;99.90
25963;DHT22;13760;52.588;13.406;2023-10-13T04:54:21;13.90;99.90
25963;DHT22;13760;52.588;13.406;2023-10-13T04:57:11;13.90;99.90
25963;DHT22;13760;52.588;13.406;2023-10-13T04:59:57;13.90;99.90
25963;DHT22;13760;52.588;13.406;2023-10-13T05:02:29;13.90;99.90
25963;DHT22;13760;52.588;13.406;2023-10-13T05:05:02;13.90;99.90
25963;DHT22;13760;52.588;13.406;2023-10-13T05:07:40;14.00;99.90
25963;DHT22;13760;52.588;13.406;2023-10-13T05:10:24;14.00;99.90
25963;DHT22;13760;52.588;13.406;2023-10-13T05:13:08;14.00;99.90
25963;DHT22;13760;52.588;13.406;2023-10-13T05:15:52;14.00;99.90
25963;DHT22;13760;52.588;13.406;2023-10-13T05:18:37;14.00;99.90
25963;DHT22;13760;52.588;13.406;2023-10-13T05:21:22;14.00;99.90
25963;DHT22;13760;52.588;13.406;2023-10-13T05:24:06;14.10;99.90
25963;DHT22;13760;52.588;13.406;2023-10-13T05:26:52;14.10;99.90
25963;DHT22;13760;52.588;13.406;2023-10-13T05:29:41;14.10;99.90
25963;DHT22;13760;52.588;13.406;2023-10-13T05:32:26;14.10;99.90
25963;DHT22;13760;52.588;13.406;2023-10-13T05:35:10;14.10;99.90
25963;DHT22;13760;52.588;13.406;2023-10-13T05:38:02;14.10;99.90
25963;DHT22;13760;52.588;13.406;2023-10-13T05:40:57;14.20;99.90
25963;DHT22;13760;52.588;13.406;2023-10-13T05:43:42;14.20;99.90
25963;DHT22;13760;52.588;13.406;2023-10-13T05:46:26;14.20;99.90
25963;DHT22;13760;52.588;13.406;2023-10-13T05:48:53;14.30;99.90
25963;DHT22;13760;52.588;13.406;2023-10-13T05:51:41;14.30;99.90
25963;DHT22;13760;52.588;13.406;2023-10-13T05:54:06;14.30;99.90
25963;DHT22;13760;52.588;13.406;2023-10-13T05:59:26;14.30;99.90
25963;DHT22;13760;52.588;13.406;2023-10-13T06:02:10;14.30;99.90
25963;DHT22;13760;52.588;13.406;2023-10-13T06:05:01;14.30;99.90
25963;DHT22;13760;52.588;13.406;2023-10-13T06:07:45;14.40;99.90
25963;DHT22;13760;52.588;13.406;2023-10-13T06:10:29;14.40;99.90
25963;DHT22;13760;52.588;13.406;2023-10-13T06:13:13;14.50;99.90
25963;DHT22;13760;52.588;13.406;2023-10-13T06:15:57;14.50;99.90
25963;DHT22;13760;52.588;13.406;2023-10-13T06:18:41;14.50;99.90
25963;DHT22;13760;52.588;13.406;2023-10-13T06:21:37;14.60;99.90
25963;DHT22;13760;52.588;13.406;2023-10-13T06:24:22;14.60;99.90
25963;DHT22;13760;52.588;13.406;2023-10-13T06:27:07;14.60;99.90
25963;DHT22;13760;52.588;13.406;2023-10-13T06:29:51;14.70;99.90
25963;DHT22;13760;52.588;13.406;2023-10-13T06:32:22;14.70;99.90
25963;DHT22;13760;52.588;13.406;2023-10-13T06:34:54;14.70;99.90
25963;DHT22;13760;52.588;13.406;2023-10-13T06:37:26;14.80;99.90
25963;DHT22;13760;52.588;13.406;2023-10-13T06:39:57;14.80;99.90
25963;DHT22;13760;52.588;13.406;2023-10-13T06:42:25;14.80;99.90
25963;DHT22;13760;52.588;13.406;2023-10-13T06:44:54;14.80;99.90
25963;DHT22;13760;52.588;13.406;2023-10-13T06:47:20;14.80;99.90
25963;DHT22;13760;52.588;13.406;2023-10-13T06:49:47;14.80;99.90
25963;DHT22;13760;52.588;13.406;2023-10-13T06:52:19;14.80;99.90
25963;DHT22;13760;52.588;13.406;2023-10-13T06:54:45;14.90;99.90
25963;DHT22;13760;52.588;13.406;2023-10-13T06:57:11;14.90;99.90
25963;DHT22;13760;52.588;13.406;2023-10-13T06:59:46;14.90;99.90
25963;DHT22;13760;52.588;13.406;2023-10-13T07:02:11;15.00;99.90
25963;DHT22;13760;52.588;13.406;2023-10-13T07:04:47;15.10;99.90
25963;DHT22;13760;52.588;13.406;2023-10-13T07:07:12;15.20;99.90
25963;DHT22;13760;52.588;13.406;2023-10-13T07:09:41;15.20;99.90
25963;DHT22;13760;52.588;13.406;2023-10-13T07:12:15;15.30;99.90
25963;DHT22;13760;52.588;13.406;2023-10-13T07:14:53;15.40;99.90
25963;DHT22;13760;52.588;13.406;2023-10-13T07:17:37;15.50;99.90
25963;DHT22;13760;52.588;13.406;2023-10-13T07:20:07;15.50;99.90
25963;DHT22;13760;52.588;13.406;2023-10-13T07:22:41;15.60;99.90
25963;DHT22;13760;52.588;13.406;2023-10-13T07:25:11;15.60;99.90
25963;DHT22;13760;52.588;13.406;2023-10-13T07:27:43;15.70;99.90
25963;DHT22;13760;52.588;13.406;2023-10-13T07:30:09;15.70;99.90
25963;DHT22;13760;52.588;13.406;2023-10-13T07:32:38;15.70;99.90
25963;DHT22;13760;52.588;13.406;2023-10-13T07:35:03;15.70;99.90
25963;DHT22;13760;52.588;13.406;2023-10-13T07:37:33;15.80;99.90
25963;DHT22;13760;52.588;13.406;2023-10-13T07:39:58;15.80;99.90
25963;DHT22;13760;52.588;13.406;2023-10-13T07:42:27;15.80;99.90
25963;DHT22;13760;52.588;13.406;2023-10-13T07:45:05;15.80;99.90
25963;DHT22;13760;52.588;13.406;2023-10-13T07:47:31;15.90;99.90
25963;DHT22;13760;52.588;13.406;2023-10-13T07:49:58;15.90;99.90
25963;DHT22;13760;52.588;13.406;2023-10-13T07:52:24;16.00;99.90
25963;DHT22;13760;52.588;13.406;2023-10-13T07:55:01;16.00;99.90
25963;DHT22;13760;52.588;13.406;2023-10-13T07:57:39;16.10;99.90
25963;DHT22;13760;52.588;13.406;2023-10-13T08:00:22;16.10;99.90
25963;DHT22;13760;52.588;13.406;2023-10-13T08:03:06;16.20;99.90
25963;DHT22;13760;52.588;13.406;2023-10-13T08:05:43;16.20;99.90
25963;DHT22;13760;52.588;13.406;2023-10-13T08:08:28;16.20;99.90
25963;DHT22;13760;52.588;13.406;2023-10-13T08:11:13;16.30;99.90
25963;DHT22;13760;52.588;13.406;2023-10-13T08:13:49;16.30;99.90
25963;DHT22;13760;52.588;13.406;2023-10-13T08:16:19;16.40;99.90
25963;DHT22;13760;52.588;13.406;2023-10-13T08:18:51;16.40;99.90
25963;DHT22;13760;52.588;13.406;2023-10-13T08:21:18;16.40;99.90
25963;DHT22;13760;52.588;13.406;2023-10-13T08:23:51;16.50;99.90
25963;DHT22;13760;52.588;13.406;2023-10-13T08:26:24;16.50;99.90
25963;DHT22;13760;52.588;13.406;2023-10-13T08:29:03;16.60;99.90
25963;DHT22;13760;52.588;13.406;2023-10-13T08:31:48;16.60;99.90
25963;DHT22;13760;52.588;13.406;2023-10-13T08:34:33;16.70;99.90
25963;DHT22;13760;52.588;13.406;2023-10-13T08:37:05;16.80;99.90
25963;DHT22;13760;52.588;13.406;2023-10-13T08:39:55;16.80;99.90
25963;DHT22;13760;52.588;13.406;2023-10-13T08:42:37;16.80;99.90
25963;DHT22;13760;52.588;13.406;2023-10-13T08:45:26;16.90;99.90
25963;DHT22;13760;52.588;13.406;2023-10-13T08:47:56;16.80;99.90
25963;DHT22;13760;52.588;13.406;2023-10-13T08:50:44;16.90;99.90
25963;DHT22;13760;52.588;13.406;2023-10-13T08:56:12;17.00;99.90
25963;DHT22;13760;52.588;13.406;2023-10-13T08:58:38;17.00;99.90
25963;DHT22;13760;52.588;13.406;2023-10-13T09:01:26;17.00;99.90
25963;DHT22;13760;52.588;13.406;2023-10-13T09:04:08;17.00;99.90
25963;DHT22;13760;52.588;13.406;2023-10-13T09:06:56;17.00;99.90
25963;DHT22;13760;52.588;13.406;2023-10-13T09:09:25;17.00;99.90
25963;DHT22;13760;52.588;13.406;2023-10-13T09:14:42;17.00;99.90
25963;DHT22;13760;52.588;13.406;2023-10-13T09:17:13;17.10;99.90
25963;DHT22;13760;52.588;13.406;2023-10-13T09:20:04;17.10;99.90
25963;DHT22;13760;52.588;13.406;2023-10-13T09:23:08;17.10;99.90
25963;DHT22;13760;52.588;13.406;2023-10-13T09:25:38;17.10;99.90
25963;DHT22;13760;52.588;13.406;2023-10-13T09:28:27;17.10;99.90
25963;DHT22;13760;52.588;13.406;2023-10-13T09:30:55;17.20;99.90
25963;DHT22;13760;52.588;13.406;2023-10-13T09:33:25;17.20;99.90
25963;DHT22;13760;52.588;13.406;2023-10-13T09:36:15;17.20;99.90
25963;DHT22;13760;52.588;13.406;2023-10-13T09:38:43;17.20;99.90
25963;DHT22;13760;52.588;13.406;2023-10-13T09:41:27;17.20;99.90
25963;DHT22;13760;52.588;13.406;2023-10-13T09:43:52;17.20;99.90
25963;DHT22;13760;52.588;13.406;2023-10-13T09:46:25;17.20;99.90
25963;DHT22;13760;52.588;13.406;2023-10-13T09:49:05;17.30;99.90
25963;DHT22;13760;52.588;13.406;2023-10-13T09:51:40;17.30;99.90
25963;DHT22;13760;52.588;13.406;2023-10-13T09:54:20;17.30;99.90
25963;DHT22;13760;52.588;13.406;2023-10-13T09:56:51;17.40;99.90
25963;DHT22;13760;52.588;13.406;2023-10-13T09:59:24;17.40;99.90
25963;DHT22;13760;52.588;13.406;2023-10-13T10:02:01;17.40;99.90
25963;DHT22;13760;52.588;13.406;2023-10-13T10:04:34;17.30;99.90
25963;DHT22;13760;52.588;13.406;2023-10-13T10:07:26;17.30;99.90
25963;DHT22;13760;52.588;13.406;2023-10-13T10:10:00;17.30;99.90
25963;DHT22;13760;52.588;13.406;2023-10-13T10:15:07;17.30;99.90
25963;DHT22;13760;52.588;13.406;2023-10-13T10:17:43;17.30;99.90
25963;DHT22;13760;52.588;13.406;2023-10-13T10:20:09;17.30;99.90
25963;DHT22;13760;52.588;13.406;2023-10-13T10:22:56;17.30;99.90
25963;DHT22;13760;52.588;13.406;2023-10-13T10:25:29;17.40;99.90
25963;DHT22;13760;52.588;13.406;2023-10-13T10:28:04;17.40;99.90
25963;DHT22;13760;52.588;13.406;2023-10-13T10:30:42;17.40;99.90
25963;DHT22;13760;52.588;13.406;2023-10-13T10:33:10;17.40;99.90
25963;DHT22;13760;52.588;13.406;2023-10-13T10:35:45;17.40;99.90
25963;DHT22;13760;52.588;13.406;2023-10-13T10:38:18;17.40;99.90
25963;DHT22;13760;52.588;13.406;2023-10-13T10:40:51;17.50;99.90
25963;DHT22;13760;52.588;13.406;2023-10-13T10:43:35;17.40;99.90
25963;DHT22;13760;52.588;13.406;2023-10-13T10:46:14;17.40;99.90
25963;DHT22;13760;52.588;13.406;2023-10-13T10:48:40;17.40;99.90
25963;DHT22;13760;52.588;13.406;2023-10-13T10:51:09;17.40;99.90
25963;DHT22;13760;52.588;13.406;2023-10-13T10:53:51;17.40;99.90
25963;DHT22;13760;52.588;13.406;2023-10-13T10:56:22;17.40;99.90
25963;DHT22;13760;52.588;13.406;2023-10-13T10:59:00;17.40;99.90
25963;DHT22;13760;52.588;13.406;2023-10-13T11:01:27;17.40;99.90
25963;DHT22;13760;52.588;13.406;2023-10-13T11:04:09;17.30;99.90
25963;DHT22;13760;52.588;13.406;2023-10-13T11:09:27;17.50;99.90
25963;DHT22;13760;52.588;13.406;2023-10-13T11:11:56;17.40;99.90
25963;DHT22;13760;52.588;13.406;2023-10-13T11:14:27;17.50;99.90
25963;DHT22;13760;52.588;13.406;2023-10-13T11:16:58;17.50;99.90
25963;DHT22;13760;52.588;13.406;2023-10-13T11:19:41;17.50;99.90
25963;DHT22;13760;52.588;13.406;2023-10-13T11:22:14;17.60;99.90
25963;DHT22;13760;52.588;13.406;2023-10-13T11:25:05;17.60;99.90
25963;DHT22;13760;52.588;13.406;2023-10-13T11:27:35;17.70;99.90
25963;DHT22;13760;52.588;13.406;2023-10-13T11:30:23;17.70;99.90
25963;DHT22;13760;52.588;13.406;2023-10-13T11:33:02;17.70;99.90
25963;DHT22;13760;52.588;13.406;2023-10-13T11:35:32;17.70;99.90
25963;DHT22;13760;52.588;13.406;2023-10-13T11:38:27;17.70;99.90
25963;DHT22;13760;52.588;13.406;2023-10-13T11:40:54;17.80;99.90
25963;DHT22;13760;52.588;13.406;2023-10-13T11:43:43;17.80;99.90
25963;DHT22;13760;52.588;13.406;2023-10-13T11:46:13;17.80;99.90
25963;DHT22;13760;52.588;13.406;2023-10-13T11:48:40;17.80;99.90
25963;DHT22;13760;52.588;13.406;2023-10-13T11:51:12;17.90;99.90
25963;DHT22;13760;52.588;13.406;2023-10-13T11:54:04;18.00;99.90
25963;DHT22;13760;52.588;13.406;2023-10-13T11:56:30;18.00;99.90
25963;DHT22;13760;52.588;13.406;2023-10-13T11:58:55;18.10;99.90
25963;DHT22;13760;52.588;13.406;2023-10-13T12:01:27;18.10;99.90
25963;DHT22;13760;52.588;13.406;2023-10-13T12:04:12;18.10;99.90
25963;DHT22;13760;52.588;13.406;2023-10-13T12:06:58;18.10;99.90
25963;DHT22;13760;52.588;13.406;2023-10-13T12:10:02;18.10;99.90
25963;DHT22;13760;52.588;13.406;2023-10-13T12:12:28;18.20;99.90
25963;DHT22;13760;52.588;13.406;2023-10-13T12:14:54;18.20;99.90
25963;DHT22;13760;52.588;13.406;2023-10-13T12:17:21;18.30;99.90
25963;DHT22;13760;52.588;13.406;2023-10-13T12:19:54;18.30;99.90
25963;DHT22;13760;52.588;13.406;2023-10-13T12:22:20;18.30;99.90
25963;DHT22;13760;52.588;13.406;2023-10-13T12:25:07;18.30;99.90
25963;DHT22;13760;52.588;13.406;2023-10-13T12:27:45;18.40;99.90
25963;DHT22;13760;52.588;13.406;2023-10-13T12:30:13;18.40;99.90
25963;DHT22;13760;52.588;13.406;2023-10-13T12:32:40;18.40;99.90
25963;DHT22;13760;52.588;13.406;2023-10-13T12:35:10;18.50;99.90
25963;DHT22;13760;52.588;13.406;2023-10-13T12:37:36;18.50;99.90
25963;DHT22;13760;52.588;13.406;2023-10-13T12:40:03;18.60;99.90
25963;DHT22;13760;52.588;13.406;2023-10-13T12:42:47;18.60;99.90
25963;DHT22;13760;52.588;13.406;2023-10-13T12:45:32;18.70;99.90
25963;DHT22;13760;52.588;13.406;2023-10-13T12:48:16;18.70;99.90
25963;DHT22;13760;52.588;13.406;2023-10-13T12:51:01;18.70;99.90
25963;DHT22;13760;52.588;13.406;2023-10-13T12:53:51;18.80;99.90
25963;DHT22;13760;52.588;13.406;2023-10-13T12:56:18;18.80;99.90
25963;DHT22;13760;52.588;13.406;2023-10-13T12:58:51;18.90;99.90
25963;DHT22;13760;52.588;13.406;2023-10-13T13:01:21;18.90;99.90
25963;DHT22;13760;52.588;13.406;2023-10-13T13:03:47;19.00;99.90
25963;DHT22;13760;52.588;13.406;2023-10-13T13:06:21;19.00;99.90
25963;DHT22;13760;52.588;13.406;2023-10-13T13:09:02;19.10;99.90
25963;DHT22;13760;52.588;13.406;2023-10-13T13:11:27;19.10;99.90
25963;DHT22;13760;52.588;13.406;2023-10-13T13:13:56;19.10;99.90
25963;DHT22;13760;52.588;13.406;2023-10-13T13:16:22;19.20;99.90
25963;DHT22;13760;52.588;13.406;2023-10-13T13:18:50;19.30;99.90
25963;DHT22;13760;52.588;13.406;2023-10-13T13:21:16;19.40;99.90
25963;DHT22;13760;52.588;13.406;2023-10-13T13:23:48;19.50;99.90
25963;DHT22;13760;52.588;13.406;2023-10-13T13:26:14;19.60;99.90
25963;DHT22;13760;52.588;13.406;2023-10-13T13:28:46;19.60;99.90
25963;DHT22;13760;52.588;13.406;2023-10-13T13:31:22;19.60;99.90
25963;DHT22;13760;52.588;13.406;2023-10-13T13:33:51;19.70;99.90
25963;DHT22;13760;52.588;13.406;2023-10-13T13:36:17;19.70;99.90
25963;DHT22;13760;52.588;13.406;2023-10-13T13:38:43;19.70;99.90
25963;DHT22;13760;52.588;13.406;2023-10-13T13:41:16;19.80;99.90
25963;DHT22;13760;52.588;13.406;2023-10-13T13:46:28;19.90;99.90
25963;DHT22;13760;52.588;13.406;2023-10-13T13:48:58;20.00;99.90
25963;DHT22;13760;52.588;13.406;2023-10-13T13:51:26;20.10;99.90
25963;DHT22;13760;52.588;13.406;2023-10-13T13:53:56;20.10;99.90
25963;DHT22;13760;52.588;13.406;2023-10-13T13:56:22;20.10;99.90
25963;DHT22;13760;52.588;13.406;2023-10-13T13:58:51;20.20;99.90
25963;DHT22;13760;52.588;13.406;2023-10-13T14:01:17;20.30;99.90
25963;DHT22;13760;52.588;13.406;2023-10-13T14:03:54;20.30;99.90
25963;DHT22;13760;52.588;13.406;2023-10-13T14:06:28;20.30;99.90
25963;DHT22;13760;52.588;13.406;2023-10-13T14:08:55;20.30;99.90
25963;DHT22;13760;52.588;13.406;2023-10-13T14:11:21;20.40;99.90
25963;DHT22;13760;52.588;13.406;2023-10-13T14:14:13;20.40;99.90
25963;DHT22;13760;52.588;13.406;2023-10-13T14:16:41;20.40;99.90
25963;DHT22;13760;52.588;13.406;2023-10-13T14:19:11;20.40;99.90
25963;DHT22;13760;52.588;13.406;2023-10-13T14:21:37;20.40;99.90
25963;DHT22;13760;52.588;13.406;2023-10-13T14:24:03;20.40;99.90
25963;DHT22;13760;52.588;13.406;2023-10-13T14:26:38;20.50;99.90
25963;DHT22;13760;52.588;13.406;2023-10-13T14:29:04;20.50;99.90
25963;DHT22;13760;52.588;13.406;2023-10-13T14:31:34;20.50;99.90
25963;DHT22;13760;52.588;13.406;2023-10-13T14:34:05;20.50;99.90
25963;DHT22;13760;52.588;13.406;2023-10-13T14:36:30;20.50;99.90
25963;DHT22;13760;52.588;13.406;2023-10-13T14:39:00;20.60;99.90
25963;DHT22;13760;52.588;13.406;2023-10-13T14:41:29;20.60;99.90
25963;DHT22;13760;52.588;13.406;2023-10-13T14:43:56;20.60;99.90
25963;DHT22;13760;52.588;13.406;2023-10-13T14:46:30;20.60;99.90
25963;DHT22;13760;52.588;13.406;2023-10-13T14:48:56;20.60;99.90
25963;DHT22;13760;52.588;13.406;2023-10-13T14:51:21;20.60;99.90
25963;DHT22;13760;52.588;13.406;2023-10-13T14:53:50;20.50;99.90
25963;DHT22;13760;52.588;13.406;2023-10-13T14:56:21;20.50;99.90
25963;DHT22;13760;52.588;13.406;2023-10-13T14:58:50;20.50;99.90
25963;DHT22;13760;52.588;13.406;2023-10-13T15:01:18;20.50;99.90
25963;DHT22;13760;52.588;13.406;2023-10-13T15:03:44;20.50;99.90
25963;DHT22;13760;52.588;13.406;2023-10-13T15:06:17;20.40;99.90
25963;DHT22;13760;52.588;13.406;2023-10-13T15:08:44;20.40;99.90
25963;DHT22;13760;52.588;13.406;2023-10-13T15:11:14;20.50;99.90
25963;DHT22;13760;52.588;13.406;2023-10-13T15:13:42;20.50;99.90
25963;DHT22;13760;52.588;13.406;2023-10-13T15:16:19;20.50;99.90
25963;DHT22;13760;52.588;13.406;2023-10-13T15:18:45;20.40;99.90
25963;DHT22;13760;52.588;13.406;2023-10-13T15:21:18;20.40;99.90
25963;DHT22;13760;52.588;13.406;2023-10-13T15:23:44;20.40;99.90
25963;DHT22;13760;52.588;13.406;2023-10-13T15:26:10;20.40;99.90
25963;DHT22;13760;52.588;13.406;2023-10-13T15:28:39;20.40;99.90
25963;DHT22;13760;52.588;13.406;2023-10-13T15:31:14;20.30;99.90
25963;DHT22;13760;52.588;13.406;2023-10-13T15:34:04;20.40;99.90
25963;DHT22;13760;52.588;13.406;2023-10-13T15:36:42;20.40;99.90
25963;DHT22;13760;52.588;13.406;2023-10-13T15:39:09;20.30;99.90
25963;DHT22;13760;52.588;13.406;2023-10-13T15:41:36;20.30;99.90
25963;DHT22;13760;52.588;13.406;2023-10-13T15:44:04;20.30;99.90
25963;DHT22;13760;52.588;13.406;2023-10-13T15:46:31;20.30;99.90
25963;DHT22;13760;52.588;13.406;2023-10-13T15:48:57;20.30;99.90
25963;DHT22;13760;52.588;13.406;2023-10-13T15:51:25;20.30;99.90
25963;DHT22;13760;52.588;13.406;2023-10-13T15:53:50;20.30;99.90
25963;DHT22;13760;52.588;13.406;2023-10-13T15:56:17;20.30;99.90
25963;DHT22;13760;52.588;13.406;2023-10-13T15:58:46;20.30;99.90
25963;DHT22;13760;52.588;13.406;2023-10-13T16:01:13;20.30;99.90
25963;DHT22;13760;52.588;13.406;2023-10-13T16:03:43;20.30;99.90
25963;DHT22;13760;52.588;13.406;2023-10-13T16:06:12;20.30;99.90
25963;DHT22;13760;52.588;13.406;2023-10-13T16:08:41;20.30;99.90
25963;DHT22;13760;52.588;13.406;2023-10-13T16:11:12;20.30;99.90
25963;DHT22;13760;52.588;13.406;2023-10-13T16:13:47;20.30;99.90
25963;DHT22;13760;52.588;13.406;2023-10-13T16:16:23;20.20;99.90
25963;DHT22;13760;52.588;13.406;2023-10-13T16:18:52;20.20;99.90